BAW441 EGHH-EGKK
Flight info
| Callsign | BAW441 |
|---|---|
| Flight time | 0h 20m |
| Altitude | 7000 |
| Route | GWC DCT HOLLY/N0270F060 DCT WILLO |
| Aircraft | A319/M-SDE3FGHIRWY/LB1 |
Departure
| Time | 2026-05-08 22:41 |
|---|---|
| Airport | Bournemouth Airport (EGHH) |
Arrival
| Time | 2026-05-08 23:01 |
|---|---|
| Airport | London Gatwick Airport (EGKK) |
| Time | Latitude | Longitude | Altitude | Speed | Heading |
|---|---|---|---|---|---|
| 2026-05-08 22:28 | 50.77807 | -1.83371 | 46 ft | 0 kts | 87° |
| 2026-05-08 22:33 | 50.77807 | -1.83382 | 46 ft | 4 kts | 85° |
| 2026-05-08 22:34 | 50.77803 | -1.83424 | 46 ft | 4 kts | 71° |
| 2026-05-08 22:34 | 50.77791 | -1.83459 | 45 ft | 4 kts | 34° |
| 2026-05-08 22:34 | 50.77776 | -1.83468 | 46 ft | 1 kts | 356° |
| 2026-05-08 22:34 | 50.77773 | -1.83468 | 46 ft | 0 kts | 356° |
| 2026-05-08 22:38 | 50.77810 | -1.83471 | 46 ft | 10 kts | 356° |
| 2026-05-08 22:38 | 50.77899 | -1.83485 | 46 ft | 16 kts | 351° |
| 2026-05-08 22:38 | 50.78008 | -1.83413 | 46 ft | 21 kts | 58° |
| 2026-05-08 22:38 | 50.78086 | -1.83182 | 47 ft | 27 kts | 57° |
| 2026-05-08 22:39 | 50.78190 | -1.83049 | 46 ft | 9 kts | 341° |
| 2026-05-08 22:39 | 50.78200 | -1.83104 | 46 ft | 5 kts | 252° |
| 2026-05-08 22:39 | 50.78199 | -1.83109 | 46 ft | 0 kts | 252° |
| 2026-05-08 22:39 | 50.78199 | -1.83112 | 46 ft | 0 kts | 252° |
| 2026-05-08 22:40 | 50.78177 | -1.83226 | 48 ft | 30 kts | 255° |
| 2026-05-08 22:40 | 50.78061 | -1.83935 | 45 ft | 110 kts | 255° |
| 2026-05-08 22:40 | 50.77808 | -1.85484 | 230 ft | 167 kts | 256° |
| 2026-05-08 22:41 | 50.77475 | -1.87209 | 1246 ft | 165 kts | 254° |
| 2026-05-08 22:41 | 50.77738 | -1.88916 | 2221 ft | 158 kts | 304° |
| 2026-05-08 22:41 | 50.78487 | -1.90036 | 3249 ft | 142 kts | 333° |
| 2026-05-08 22:41 | 50.79386 | -1.90338 | 4129 ft | 127 kts | 12° |
| 2026-05-08 22:42 | 50.80136 | -1.89739 | 4773 ft | 127 kts | 51° |
| 2026-05-08 22:42 | 50.80428 | -1.88332 | 5104 ft | 153 kts | 104° |
| 2026-05-08 22:42 | 50.79934 | -1.86833 | 5861 ft | 158 kts | 131° |
| 2026-05-08 22:42 | 50.79200 | -1.85336 | 6203 ft | 202 kts | 123° |
| 2026-05-08 22:43 | 50.78643 | -1.82961 | 6276 ft | 258 kts | 103° |
| 2026-05-08 22:43 | 50.78324 | -1.80097 | 5875 ft | 266 kts | 102° |
| 2026-05-08 22:43 | 50.77987 | -1.77245 | 5959 ft | 266 kts | 101° |
| 2026-05-08 22:43 | 50.78063 | -1.74327 | 6236 ft | 274 kts | 75° |
| 2026-05-08 22:44 | 50.78884 | -1.71600 | 6050 ft | 274 kts | 65° |
| 2026-05-08 22:44 | 50.79683 | -1.68884 | 5929 ft | 272 kts | 67° |
| 2026-05-08 22:44 | 50.80458 | -1.66169 | 5973 ft | 271 kts | 68° |
| 2026-05-08 22:44 | 50.81219 | -1.63427 | 5981 ft | 272 kts | 68° |
| 2026-05-08 22:45 | 50.81953 | -1.60716 | 5989 ft | 272 kts | 69° |
| 2026-05-08 22:45 | 50.82681 | -1.57958 | 6001 ft | 272 kts | 69° |
| 2026-05-08 22:45 | 50.83394 | -1.55193 | 6012 ft | 272 kts | 69° |
| 2026-05-08 22:45 | 50.84090 | -1.52416 | 6026 ft | 272 kts | 70° |
| 2026-05-08 22:46 | 50.84772 | -1.49628 | 6046 ft | 272 kts | 70° |
| 2026-05-08 22:46 | 50.85440 | -1.46823 | 6073 ft | 272 kts | 71° |
| 2026-05-08 22:46 | 50.86120 | -1.44029 | 6006 ft | 272 kts | 70° |
| 2026-05-08 22:46 | 50.86833 | -1.41252 | 5940 ft | 272 kts | 69° |
| 2026-05-08 22:47 | 50.87570 | -1.38505 | 5896 ft | 270 kts | 68° |
| 2026-05-08 22:47 | 50.88274 | -1.35791 | 5925 ft | 270 kts | 69° |
| 2026-05-08 22:47 | 50.88950 | -1.33012 | 5966 ft | 270 kts | 71° |
| 2026-05-08 22:47 | 50.89587 | -1.30214 | 6001 ft | 271 kts | 72° |
| 2026-05-08 22:48 | 50.90188 | -1.27385 | 6044 ft | 271 kts | 73° |
| 2026-05-08 22:48 | 50.90748 | -1.24540 | 6090 ft | 271 kts | 75° |
| 2026-05-08 22:48 | 50.91323 | -1.21689 | 6033 ft | 272 kts | 71° |
| 2026-05-08 22:48 | 50.92056 | -1.18933 | 5866 ft | 271 kts | 66° |
| 2026-05-08 22:49 | 50.92891 | -1.16265 | 5790 ft | 269 kts | 64° |
| 2026-05-08 22:49 | 50.94592 | -1.11000 | 6062 ft | 271 kts | 64° |
| 2026-05-08 22:49 | 50.95397 | -1.08287 | 5961 ft | 271 kts | 68° |
| 2026-05-08 22:50 | 50.96113 | -1.05524 | 5908 ft | 270 kts | 70° |
| 2026-05-08 22:50 | 50.96785 | -1.02735 | 5633 ft | 271 kts | 70° |
| 2026-05-08 22:50 | 50.97469 | -0.99937 | 5068 ft | 274 kts | 70° |
| 2026-05-08 22:50 | 50.98181 | -0.97127 | 4527 ft | 275 kts | 69° |
| 2026-05-08 22:51 | 50.98889 | -0.94342 | 4191 ft | 269 kts | 69° |
| 2026-05-08 22:51 | 50.99568 | -0.91633 | 4053 ft | 261 kts | 70° |
| 2026-05-08 22:51 | 51.00228 | -0.88954 | 4037 ft | 260 kts | 70° |
| 2026-05-08 22:51 | 51.00866 | -0.86308 | 4019 ft | 260 kts | 70° |
| 2026-05-08 22:52 | 51.01502 | -0.83614 | 4002 ft | 260 kts | 71° |
| 2026-05-08 22:52 | 51.02126 | -0.80914 | 3992 ft | 260 kts | 71° |
| 2026-05-08 22:52 | 51.02739 | -0.78215 | 3991 ft | 260 kts | 71° |
| 2026-05-08 22:52 | 51.03405 | -0.75536 | 3943 ft | 261 kts | 69° |
| 2026-05-08 22:53 | 51.04125 | -0.72892 | 3736 ft | 260 kts | 68° |
| 2026-05-08 22:53 | 51.04845 | -0.70264 | 3609 ft | 259 kts | 68° |
| 2026-05-08 22:53 | 51.05545 | -0.67628 | 3514 ft | 259 kts | 69° |
| 2026-05-08 22:53 | 51.06224 | -0.64982 | 3423 ft | 258 kts | 69° |
| 2026-05-08 22:54 | 51.06875 | -0.62361 | 3325 ft | 248 kts | 70° |
| 2026-05-08 22:54 | 51.07465 | -0.59912 | 3265 ft | 233 kts | 71° |
| 2026-05-08 22:54 | 51.08018 | -0.57565 | 3158 ft | 222 kts | 71° |
| 2026-05-08 22:54 | 51.08578 | -0.55320 | 2970 ft | 215 kts | 69° |
| 2026-05-08 22:55 | 51.09158 | -0.53176 | 2825 ft | 207 kts | 68° |
| 2026-05-08 22:55 | 51.09705 | -0.51126 | 2776 ft | 195 kts | 70° |
| 2026-05-08 22:55 | 51.10176 | -0.49175 | 2754 ft | 185 kts | 72° |
| 2026-05-08 22:55 | 51.10618 | -0.47268 | 2731 ft | 182 kts | 72° |
| 2026-05-08 22:56 | 51.11048 | -0.45373 | 2655 ft | 182 kts | 73° |
| 2026-05-08 22:56 | 51.11381 | -0.43448 | 2529 ft | 180 kts | 78° |
| 2026-05-08 22:56 | 51.11656 | -0.41605 | 2554 ft | 162 kts | 79° |
| 2026-05-08 22:56 | 51.11892 | -0.40001 | 2553 ft | 138 kts | 79° |
| 2026-05-08 22:57 | 51.12108 | -0.38586 | 2465 ft | 127 kts | 79° |
| 2026-05-08 22:57 | 51.12309 | -0.37255 | 2392 ft | 118 kts | 79° |
| 2026-05-08 22:57 | 51.12488 | -0.36014 | 2229 ft | 113 kts | 80° |
| 2026-05-08 22:57 | 51.12662 | -0.34818 | 1882 ft | 110 kts | 81° |
| 2026-05-08 22:58 | 51.12821 | -0.33649 | 1613 ft | 107 kts | 80° |
| 2026-05-08 22:58 | 51.12967 | -0.32501 | 1434 ft | 106 kts | 81° |
| 2026-05-08 22:58 | 51.13129 | -0.31356 | 1301 ft | 106 kts | 78° |
| 2026-05-08 22:58 | 51.13301 | -0.30230 | 1163 ft | 106 kts | 78° |
| 2026-05-08 22:59 | 51.13457 | -0.29082 | 1039 ft | 106 kts | 80° |
| 2026-05-08 22:59 | 51.13590 | -0.27941 | 925 ft | 107 kts | 80° |
| 2026-05-08 22:59 | 51.13743 | -0.26780 | 811 ft | 107 kts | 77° |
| 2026-05-08 22:59 | 51.13915 | -0.25624 | 684 ft | 107 kts | 78° |
| 2026-05-08 23:00 | 51.14064 | -0.24464 | 581 ft | 107 kts | 78° |
| 2026-05-08 23:00 | 51.14234 | -0.23305 | 484 ft | 108 kts | 77° |
| 2026-05-08 23:00 | 51.14384 | -0.22139 | 361 ft | 107 kts | 78° |
| 2026-05-08 23:00 | 51.14544 | -0.20980 | 265 ft | 107 kts | 78° |
| 2026-05-08 23:01 | 51.14699 | -0.19854 | 220 ft | 97 kts | 78° |
| 2026-05-08 23:01 | 51.14824 | -0.19002 | 208 ft | 61 kts | 79° |
| 2026-05-08 23:01 | 51.14890 | -0.18467 | 209 ft | 40 kts | 77° |
| 2026-05-08 23:01 | 51.14958 | -0.17995 | 211 ft | 48 kts | 77° |
| 2026-05-08 23:02 | 51.15035 | -0.17462 | 216 ft | 45 kts | 73° |
| 2026-05-08 23:02 | 51.15166 | -0.17230 | 204 ft | 15 kts | 340° |
| 2026-05-08 23:02 | 51.15220 | -0.17286 | 212 ft | 6 kts | 317° |
| 2026-05-08 23:02 | 51.15282 | -0.17355 | 210 ft | 15 kts | 326° |
| 2026-05-08 23:03 | 51.15289 | -0.17519 | 204 ft | 18 kts | 256° |
| 2026-05-08 23:03 | 51.15260 | -0.17741 | 204 ft | 23 kts | 257° |
| 2026-05-08 23:03 | 51.15222 | -0.18015 | 204 ft | 28 kts | 257° |
| 2026-05-08 23:03 | 51.15184 | -0.18328 | 209 ft | 30 kts | 263° |
| 2026-05-08 23:04 | 51.15139 | -0.18660 | 206 ft | 26 kts | 258° |
| 2026-05-08 23:04 | 51.15110 | -0.18872 | 209 ft | 19 kts | 258° |
| 2026-05-08 23:04 | 51.15090 | -0.19022 | 204 ft | 11 kts | 258° |
| 2026-05-08 23:04 | 51.15071 | -0.19162 | 213 ft | 11 kts | 258° |
| 2026-05-08 23:05 | 51.15045 | -0.19254 | 206 ft | 6 kts | 223° |
| 2026-05-08 23:05 | 51.15024 | -0.19266 | 208 ft | 3 kts | 188° |
| 2026-05-08 23:05 | 51.15006 | -0.19262 | 206 ft | 1 kts | 166° |
| 2026-05-08 23:05 | 51.14968 | -0.19275 | 207 ft | 12 kts | 217° |
| 2026-05-08 23:06 | 51.14940 | -0.19438 | 214 ft | 23 kts | 259° |
| 2026-05-08 23:06 | 51.14901 | -0.19718 | 209 ft | 28 kts | 257° |
| 2026-05-08 23:06 | 51.14856 | -0.20058 | 213 ft | 34 kts | 258° |
| 2026-05-08 23:06 | 51.14800 | -0.20462 | 208 ft | 40 kts | 257° |
| 2026-05-08 23:07 | 51.14755 | -0.20795 | 213 ft | 15 kts | 258° |
| 2026-05-08 23:07 | 51.14727 | -0.20980 | 205 ft | 20 kts | 257° |
| 2026-05-08 23:07 | 51.14694 | -0.21223 | 209 ft | 25 kts | 257° |
| 2026-05-08 23:07 | 51.14660 | -0.21363 | 213 ft | 4 kts | 144° |
| 2026-05-08 23:08 | 51.14618 | -0.21328 | 210 ft | 10 kts | 162° |
| 2026-05-08 23:08 | 51.14552 | -0.21279 | 212 ft | 11 kts | 139° |
| 2026-05-08 23:08 | 51.14524 | -0.21137 | 203 ft | 16 kts | 81° |
| 2026-05-08 23:08 | 51.14538 | -0.21040 | 204 ft | 1 kts | 78° |
| 2026-05-08 23:09 | 51.14538 | -0.21037 | 204 ft | 0 kts | 78° |
| 2026-05-08 23:09 | 51.14539 | -0.21028 | 204 ft | 6 kts | 78° |
| 2026-05-08 23:09 | 51.14634 | -0.20344 | 206 ft | 121 kts | 77° |
| 2026-05-08 23:09 | 51.14874 | -0.18584 | 402 ft | 191 kts | 78° |
| 2026-05-08 23:10 | 51.15209 | -0.16222 | 663 ft | 247 kts | 78° |
| 2026-05-08 23:10 | 51.15557 | -0.13583 | 996 ft | 243 kts | 79° |
| 2026-05-08 23:10 | 51.15884 | -0.11082 | 1637 ft | 245 kts | 79° |
| 2026-05-08 23:10 | 51.16241 | -0.08460 | 2235 ft | 247 kts | 78° |
| 2026-05-08 23:11 | 51.16804 | -0.05890 | 2992 ft | 249 kts | 63° |
| 2026-05-08 23:11 | 51.17897 | -0.03670 | 4005 ft | 261 kts | 44° |
| 2026-05-08 23:11 | 51.19444 | -0.02099 | 4998 ft | 269 kts | 25° |
| 2026-05-08 23:11 | 51.21265 | -0.01292 | 5452 ft | 275 kts | 10° |
| 2026-05-08 23:12 | 51.23178 | -0.00994 | 5120 ft | 276 kts | 6° |
| 2026-05-08 23:12 | 51.25050 | -0.00656 | 5256 ft | 268 kts | 7° |
| 2026-05-08 23:12 | 51.26926 | -0.00504 | 5790 ft | 274 kts | 360° |
| 2026-05-08 23:12 | 51.28829 | -0.00689 | 5913 ft | 271 kts | 356° |
| 2026-05-08 23:13 | 51.30726 | -0.00994 | 5925 ft | 273 kts | 354° |
| 2026-05-08 23:13 | 51.32574 | -0.01476 | 5938 ft | 273 kts | 348° |
| 2026-05-08 23:13 | 51.34389 | -0.02415 | 6098 ft | 276 kts | 336° |
| 2026-05-08 23:13 | 51.35918 | -0.04272 | 6354 ft | 282 kts | 310° |
| 2026-05-08 23:14 | 51.36793 | -0.07034 | 6209 ft | 280 kts | 285° |
| 2026-05-08 23:14 | 51.37137 | -0.10126 | 5584 ft | 285 kts | 274° |
| 2026-05-08 23:14 | 51.37172 | -0.13284 | 5247 ft | 279 kts | 266° |
| 2026-05-08 23:14 | 51.37008 | -0.16337 | 5335 ft | 276 kts | 262° |
| 2026-05-08 23:15 | 51.36739 | -0.19366 | 5258 ft | 275 kts | 259° |
| 2026-05-08 23:15 | 51.36421 | -0.22374 | 5105 ft | 274 kts | 259° |
| 2026-05-08 23:15 | 51.36147 | -0.25387 | 4920 ft | 273 kts | 261° |
| 2026-05-08 23:15 | 51.35706 | -0.28330 | 4776 ft | 274 kts | 252° |
| 2026-05-08 23:16 | 51.35194 | -0.31207 | 4514 ft | 271 kts | 253° |
| 2026-05-08 23:16 | 51.34736 | -0.34126 | 4384 ft | 270 kts | 256° |
| 2026-05-08 23:16 | 51.34337 | -0.37064 | 4344 ft | 271 kts | 257° |
| 2026-05-08 23:16 | 51.33989 | -0.40023 | 4259 ft | 270 kts | 259° |
| 2026-05-08 23:17 | 51.33693 | -0.42989 | 4183 ft | 270 kts | 261° |
| 2026-05-08 23:17 | 51.33564 | -0.45984 | 4081 ft | 271 kts | 268° |
| 2026-05-08 23:17 | 51.33545 | -0.48959 | 3718 ft | 266 kts | 269° |
| 2026-05-08 23:17 | 51.33539 | -0.51907 | 3231 ft | 264 kts | 269° |
| 2026-05-08 23:18 | 51.33556 | -0.54794 | 3024 ft | 255 kts | 270° |
| 2026-05-08 23:18 | 51.33628 | -0.57510 | 2788 ft | 248 kts | 274° |
| 2026-05-08 23:18 | 51.33873 | -0.60156 | 2542 ft | 239 kts | 281° |
| 2026-05-08 23:18 | 51.34251 | -0.62690 | 2300 ft | 225 kts | 284° |
| 2026-05-08 23:19 | 51.34627 | -0.65039 | 2083 ft | 218 kts | 284° |
| 2026-05-08 23:19 | 51.34958 | -0.67117 | 1926 ft | 216 kts | 284° |
| 2026-05-08 23:19 | 51.35314 | -0.69391 | 1835 ft | 203 kts | 283° |
| 2026-05-08 23:19 | 51.35664 | -0.71544 | 1750 ft | 198 kts | 289° |
| 2026-05-08 23:20 | 51.36384 | -0.73364 | 1863 ft | 194 kts | 315° |
| 2026-05-08 23:20 | 51.37380 | -0.74825 | 2050 ft | 195 kts | 321° |
| 2026-05-08 23:20 | 51.38539 | -0.75883 | 2074 ft | 191 kts | 346° |
| 2026-05-08 23:20 | 51.39822 | -0.76099 | 2276 ft | 189 kts | 1° |
| 2026-05-08 23:21 | 51.41133 | -0.76001 | 2237 ft | 188 kts | 8° |
| 2026-05-08 23:21 | 51.42434 | -0.75845 | 2228 ft | 187 kts | 6° |
| 2026-05-08 23:21 | 51.43734 | -0.75718 | 2228 ft | 187 kts | 6° |
| 2026-05-08 23:21 | 51.45032 | -0.75563 | 2227 ft | 187 kts | 7° |
| 2026-05-08 23:22 | 51.46328 | -0.75366 | 2177 ft | 187 kts | 11° |
| 2026-05-08 23:22 | 51.47439 | -0.74462 | 2071 ft | 179 kts | 52° |
| 2026-05-08 23:22 | 51.47779 | -0.72618 | 2226 ft | 175 kts | 91° |
| 2026-05-08 23:22 | 51.47754 | -0.70633 | 2204 ft | 177 kts | 92° |
| 2026-05-08 23:23 | 51.47714 | -0.68689 | 2208 ft | 176 kts | 93° |
| 2026-05-08 23:23 | 51.47681 | -0.66726 | 2011 ft | 176 kts | 91° |
| 2026-05-08 23:23 | 51.47687 | -0.64776 | 1836 ft | 174 kts | 91° |
| 2026-05-08 23:23 | 51.47691 | -0.62845 | 1713 ft | 172 kts | 90° |
| 2026-05-08 23:24 | 51.47717 | -0.61111 | 1560 ft | 142 kts | 90° |
| 2026-05-08 23:24 | 51.47714 | -0.59605 | 1364 ft | 129 kts | 92° |
| 2026-05-08 23:24 | 51.47705 | -0.58195 | 1237 ft | 124 kts | 91° |
| 2026-05-08 23:24 | 51.47686 | -0.56819 | 1160 ft | 123 kts | 92° |
| 2026-05-08 23:25 | 51.47706 | -0.55449 | 1035 ft | 124 kts | 86° |
| 2026-05-08 23:25 | 51.47720 | -0.54076 | 866 ft | 123 kts | 90° |
| 2026-05-08 23:25 | 51.47753 | -0.52698 | 655 ft | 123 kts | 89° |
| 2026-05-08 23:25 | 51.47768 | -0.51315 | 459 ft | 124 kts | 88° |
| 2026-05-08 23:26 | 51.47763 | -0.49957 | 360 ft | 124 kts | 90° |
| 2026-05-08 23:26 | 51.47752 | -0.48594 | 246 ft | 126 kts | 90° |
| 2026-05-08 23:26 | 51.47752 | -0.46811 | 419 ft | 190 kts | 90° |
| 2026-05-08 23:26 | 51.47759 | -0.44422 | 783 ft | 236 kts | 90° |
| 2026-05-08 23:27 | 51.47744 | -0.41656 | 1240 ft | 242 kts | 91° |
| 2026-05-08 23:27 | 51.47824 | -0.39047 | 2164 ft | 235 kts | 77° |
| 2026-05-08 23:27 | 51.48767 | -0.36920 | 3101 ft | 244 kts | 35° |
| 2026-05-08 23:27 | 51.50311 | -0.35799 | 3670 ft | 247 kts | 20° |
| 2026-05-08 23:28 | 51.52014 | -0.35378 | 3960 ft | 251 kts | 358° |
| 2026-05-08 23:28 | 51.53666 | -0.36233 | 4202 ft | 257 kts | 325° |
| 2026-05-08 23:28 | 51.54808 | -0.38419 | 4154 ft | 256 kts | 299° |
| 2026-05-08 23:28 | 51.55513 | -0.41025 | 4290 ft | 255 kts | 288° |
| 2026-05-08 23:29 | 51.55924 | -0.43812 | 4042 ft | 257 kts | 277° |
| 2026-05-08 23:29 | 51.56065 | -0.46680 | 3592 ft | 258 kts | 272° |
| 2026-05-08 23:29 | 51.56114 | -0.49509 | 3427 ft | 248 kts | 269° |
| 2026-05-08 23:29 | 51.56036 | -0.52210 | 3281 ft | 237 kts | 264° |
| 2026-05-08 23:30 | 51.55794 | -0.54763 | 3124 ft | 227 kts | 256° |
| 2026-05-08 23:30 | 51.55423 | -0.57183 | 2838 ft | 225 kts | 254° |
| 2026-05-08 23:30 | 51.55023 | -0.59549 | 2807 ft | 216 kts | 253° |
| 2026-05-08 23:30 | 51.54590 | -0.61846 | 2790 ft | 214 kts | 249° |
| 2026-05-08 23:31 | 51.53961 | -0.64077 | 2238 ft | 227 kts | 241° |
| 2026-05-08 23:31 | 51.53209 | -0.66295 | 1953 ft | 224 kts | 237° |
| 2026-05-08 23:31 | 51.52206 | -0.68095 | 1626 ft | 208 kts | 211° |
| 2026-05-08 23:31 | 51.50911 | -0.68660 | 1401 ft | 186 kts | 176° |
| 2026-05-08 23:32 | 51.49706 | -0.68253 | 1149 ft | 170 kts | 155° |
| 2026-05-08 23:32 | 51.48777 | -0.67313 | 893 ft | 149 kts | 136° |
| 2026-05-08 23:32 | 51.48157 | -0.66094 | 812 ft | 141 kts | 119° |
| 2026-05-08 23:32 | 51.47799 | -0.64643 | 1266 ft | 137 kts | 104° |
| 2026-05-08 23:33 | 51.47679 | -0.63156 | 1861 ft | 135 kts | 93° |
| 2026-05-08 23:33 | 51.47694 | -0.61633 | 1888 ft | 136 kts | 90° |
| 2026-05-08 23:33 | 51.47739 | -0.60129 | 1560 ft | 134 kts | 89° |
| 2026-05-08 23:33 | 51.47737 | -0.58648 | 1245 ft | 132 kts | 94° |
| 2026-05-08 23:34 | 51.47657 | -0.57193 | 1206 ft | 132 kts | 90° |
| 2026-05-08 23:34 | 51.47691 | -0.55704 | 971 ft | 134 kts | 88° |
| 2026-05-08 23:34 | 51.47725 | -0.54240 | 806 ft | 134 kts | 87° |
| 2026-05-08 23:34 | 51.47737 | -0.52750 | 678 ft | 134 kts | 89° |
| 2026-05-08 23:35 | 51.47736 | -0.51255 | 487 ft | 133 kts | 90° |
| 2026-05-08 23:35 | 51.47752 | -0.49756 | 305 ft | 133 kts | 89° |
| 2026-05-08 23:35 | 51.47763 | -0.48264 | 161 ft | 135 kts | 88° |
| 2026-05-08 23:35 | 51.47764 | -0.46779 | 114 ft | 133 kts | 89° |
| 2026-05-08 23:36 | 51.47768 | -0.45428 | 88 ft | 103 kts | 90° |
| 2026-05-08 23:36 | 51.47773 | -0.44536 | 89 ft | 61 kts | 89° |
| 2026-05-08 23:36 | 51.47770 | -0.43958 | 86 ft | 28 kts | 101° |
| 2026-05-08 23:36 | 51.47642 | -0.43764 | 86 ft | 24 kts | 149° |
| 2026-05-08 23:37 | 51.47593 | -0.43644 | 90 ft | 0 kts | 103° |